sensor_id;sensor_type;location;lat;lon;timestamp;temperature;humidity
27114;DHT22;14648;49.730;8.614;2022-09-17T00:00:08;12.10;63.40
27114;DHT22;14648;49.730;8.614;2022-09-17T00:02:34;12.10;63.30
27114;DHT22;14648;49.730;8.614;2022-09-17T00:05:00;12.10;63.30
27114;DHT22;14648;49.730;8.614;2022-09-17T00:07:27;12.10;63.30
27114;DHT22;14648;49.730;8.614;2022-09-17T00:09:53;12.00;64.10
27114;DHT22;14648;49.730;8.614;2022-09-17T00:12:18;12.10;63.60
27114;DHT22;14648;49.730;8.614;2022-09-17T00:14:44;12.10;63.50
27114;DHT22;14648;49.730;8.614;2022-09-17T00:17:10;12.20;63.40
27114;DHT22;14648;49.730;8.614;2022-09-17T00:19:36;12.20;63.30
27114;DHT22;14648;49.730;8.614;2022-09-17T00:22:01;12.20;63.20
27114;DHT22;14648;49.730;8.614;2022-09-17T00:24:28;12.20;63.20
27114;DHT22;14648;49.730;8.614;2022-09-17T00:26:54;12.20;63.20
27114;DHT22;14648;49.730;8.614;2022-09-17T00:29:20;12.20;63.20
27114;DHT22;14648;49.730;8.614;2022-09-17T00:31:46;12.20;63.20
27114;DHT22;14648;49.730;8.614;2022-09-17T00:34:12;12.10;63.30
27114;DHT22;14648;49.730;8.614;2022-09-17T00:36:38;12.10;63.40
27114;DHT22;14648;49.730;8.614;2022-09-17T00:39:06;12.10;63.30
27114;DHT22;14648;49.730;8.614;2022-09-17T00:41:36;12.10;63.30
27114;DHT22;14648;49.730;8.614;2022-09-17T00:47:18;12.20;63.10
27114;DHT22;14648;49.730;8.614;2022-09-17T00:49:48;12.10;62.90
27114;DHT22;14648;49.730;8.614;2022-09-17T00:52:24;12.10;62.90
27114;DHT22;14648;49.730;8.614;2022-09-17T00:57:45;12.00;63.00
27114;DHT22;14648;49.730;8.614;2022-09-17T01:00:13;12.00;62.90
27114;DHT22;14648;49.730;8.614;2022-09-17T01:02:40;12.00;62.90
27114;DHT22;14648;49.730;8.614;2022-09-17T01:05:07;12.00;63.10
27114;DHT22;14648;49.730;8.614;2022-09-17T01:08:17;11.90;62.90
27114;DHT22;14648;49.730;8.614;2022-09-17T01:23:15;11.80;62.90
27114;DHT22;14648;49.730;8.614;2022-09-17T01:28:56;11.80;62.50
27114;DHT22;14648;49.730;8.614;2022-09-17T01:31:58;11.80;62.70
27114;DHT22;14648;49.730;8.614;2022-09-17T01:34:46;11.80;62.60
27114;DHT22;14648;49.730;8.614;2022-09-17T01:40:21;11.60;62.90
27114;DHT22;14648;49.730;8.614;2022-09-17T01:43:11;11.60;62.90
27114;DHT22;14648;49.730;8.614;2022-09-17T01:46:12;11.60;63.10
27114;DHT22;14648;49.730;8.614;2022-09-17T01:48:46;11.60;63.10
27114;DHT22;14648;49.730;8.614;2022-09-17T01:51:23;11.60;63.00
27114;DHT22;14648;49.730;8.614;2022-09-17T01:53:55;11.60;63.10
27114;DHT22;14648;49.730;8.614;2022-09-17T01:56:27;11.70;63.10
27114;DHT22;14648;49.730;8.614;2022-09-17T01:59:03;11.70;63.00
27114;DHT22;14648;49.730;8.614;2022-09-17T02:01:35;11.70;62.90
27114;DHT22;14648;49.730;8.614;2022-09-17T02:04:08;11.80;62.90
27114;DHT22;14648;49.730;8.614;2022-09-17T02:06:58;11.80;62.90
27114;DHT22;14648;49.730;8.614;2022-09-17T02:09:33;11.80;62.70
27114;DHT22;14648;49.730;8.614;2022-09-17T02:12:03;11.80;63.00
27114;DHT22;14648;49.730;8.614;2022-09-17T02:14:43;11.80;63.10
27114;DHT22;14648;49.730;8.614;2022-09-17T02:17:20;11.80;63.10
27114;DHT22;14648;49.730;8.614;2022-09-17T02:19:48;11.90;63.30
27114;DHT22;14648;49.730;8.614;2022-09-17T02:25:07;12.00;63.20
27114;DHT22;14648;49.730;8.614;2022-09-17T02:28:13;12.00;63.30
27114;DHT22;14648;49.730;8.614;2022-09-17T02:30:42;12.00;63.10
27114;DHT22;14648;49.730;8.614;2022-09-17T02:33:12;12.00;62.90
27114;DHT22;14648;49.730;8.614;2022-09-17T02:35:38;12.00;62.90
27114;DHT22;14648;49.730;8.614;2022-09-17T02:38:05;12.00;62.90
27114;DHT22;14648;49.730;8.614;2022-09-17T02:40:36;12.10;63.10
27114;DHT22;14648;49.730;8.614;2022-09-17T02:43:43;12.10;63.10
27114;DHT22;14648;49.730;8.614;2022-09-17T02:47:03;12.10;63.10
27114;DHT22;14648;49.730;8.614;2022-09-17T02:50:17;12.10;63.10
27114;DHT22;14648;49.730;8.614;2022-09-17T02:55:59;12.10;62.90
27114;DHT22;14648;49.730;8.614;2022-09-17T02:58:44;12.20;62.80
27114;DHT22;14648;49.730;8.614;2022-09-17T03:01:22;12.20;62.80
27114;DHT22;14648;49.730;8.614;2022-09-17T03:03:53;12.10;62.90
27114;DHT22;14648;49.730;8.614;2022-09-17T03:06:20;12.20;62.90
27114;DHT22;14648;49.730;8.614;2022-09-17T03:08:48;12.20;62.90
27114;DHT22;14648;49.730;8.614;2022-09-17T03:11:13;12.20;62.90
27114;DHT22;14648;49.730;8.614;2022-09-17T03:13:40;12.20;62.60
27114;DHT22;14648;49.730;8.614;2022-09-17T03:16:06;12.20;62.70
27114;DHT22;14648;49.730;8.614;2022-09-17T03:18:32;12.20;62.60
27114;DHT22;14648;49.730;8.614;2022-09-17T03:20:58;12.20;62.50
27114;DHT22;14648;49.730;8.614;2022-09-17T03:23:24;12.20;62.60
27114;DHT22;14648;49.730;8.614;2022-09-17T03:25:50;12.20;62.70
27114;DHT22;14648;49.730;8.614;2022-09-17T03:28:16;12.20;62.60
27114;DHT22;14648;49.730;8.614;2022-09-17T03:30:46;12.20;62.70
27114;DHT22;14648;49.730;8.614;2022-09-17T03:33:12;12.20;62.80
27114;DHT22;14648;49.730;8.614;2022-09-17T03:35:42;12.30;62.80
27114;DHT22;14648;49.730;8.614;2022-09-17T03:38:08;12.20;62.60
27114;DHT22;14648;49.730;8.614;2022-09-17T03:40:34;12.20;62.50
27114;DHT22;14648;49.730;8.614;2022-09-17T03:42:59;12.20;62.40
27114;DHT22;14648;49.730;8.614;2022-09-17T03:45:25;12.10;62.40
27114;DHT22;14648;49.730;8.614;2022-09-17T03:47:51;12.10;62.70
27114;DHT22;14648;49.730;8.614;2022-09-17T03:50:16;12.10;62.70
27114;DHT22;14648;49.730;8.614;2022-09-17T03:52:42;12.20;62.70
27114;DHT22;14648;49.730;8.614;2022-09-17T03:55:09;12.30;62.40
27114;DHT22;14648;49.730;8.614;2022-09-17T03:57:36;12.30;62.40
27114;DHT22;14648;49.730;8.614;2022-09-17T04:00:02;12.20;62.30
27114;DHT22;14648;49.730;8.614;2022-09-17T04:02:28;12.20;62.40
27114;DHT22;14648;49.730;8.614;2022-09-17T04:04:54;12.30;62.40
27114;DHT22;14648;49.730;8.614;2022-09-17T04:07:20;12.20;62.40
27114;DHT22;14648;49.730;8.614;2022-09-17T04:09:45;12.30;62.50
27114;DHT22;14648;49.730;8.614;2022-09-17T04:12:11;12.40;62.40
27114;DHT22;14648;49.730;8.614;2022-09-17T04:14:37;12.30;62.20
27114;DHT22;14648;49.730;8.614;2022-09-17T04:17:03;12.30;62.20
27114;DHT22;14648;49.730;8.614;2022-09-17T04:19:28;12.30;62.40
27114;DHT22;14648;49.730;8.614;2022-09-17T04:21:54;12.30;62.50
27114;DHT22;14648;49.730;8.614;2022-09-17T04:24:20;12.30;62.50
27114;DHT22;14648;49.730;8.614;2022-09-17T04:26:45;12.30;62.50
27114;DHT22;14648;49.730;8.614;2022-09-17T04:29:11;12.40;62.40
27114;DHT22;14648;49.730;8.614;2022-09-17T04:31:37;12.40;62.20
27114;DHT22;14648;49.730;8.614;2022-09-17T04:34:02;12.40;62.10
27114;DHT22;14648;49.730;8.614;2022-09-17T04:36:28;12.40;62.10
27114;DHT22;14648;49.730;8.614;2022-09-17T04:38:54;12.40;62.20
27114;DHT22;14648;49.730;8.614;2022-09-17T04:41:20;12.40;62.20
27114;DHT22;14648;49.730;8.614;2022-09-17T04:43:46;12.40;62.20
27114;DHT22;14648;49.730;8.614;2022-09-17T04:46:11;12.40;62.00
27114;DHT22;14648;49.730;8.614;2022-09-17T04:48:38;12.40;62.10
27114;DHT22;14648;49.730;8.614;2022-09-17T04:51:04;12.40;62.20
27114;DHT22;14648;49.730;8.614;2022-09-17T04:53:30;12.40;62.20
27114;DHT22;14648;49.730;8.614;2022-09-17T04:55:56;12.40;62.20
27114;DHT22;14648;49.730;8.614;2022-09-17T04:58:21;12.40;62.30
27114;DHT22;14648;49.730;8.614;2022-09-17T05:00:47;12.30;62.20
27114;DHT22;14648;49.730;8.614;2022-09-17T05:03:13;12.30;62.40
27114;DHT22;14648;49.730;8.614;2022-09-17T05:05:39;12.30;62.70
27114;DHT22;14648;49.730;8.614;2022-09-17T05:08:05;12.20;62.80
27114;DHT22;14648;49.730;8.614;2022-09-17T05:10:32;12.20;62.90
27114;DHT22;14648;49.730;8.614;2022-09-17T05:12:58;12.10;63.20
27114;DHT22;14648;49.730;8.614;2022-09-17T05:15:25;12.10;63.30
27114;DHT22;14648;49.730;8.614;2022-09-17T05:17:51;12.10;63.40
27114;DHT22;14648;49.730;8.614;2022-09-17T05:20:17;12.00;63.60
27114;DHT22;14648;49.730;8.614;2022-09-17T05:22:43;12.00;63.80
27114;DHT22;14648;49.730;8.614;2022-09-17T05:25:15;12.00;64.10
27114;DHT22;14648;49.730;8.614;2022-09-17T05:27:42;12.00;64.10
27114;DHT22;14648;49.730;8.614;2022-09-17T05:30:08;12.00;64.20
27114;DHT22;14648;49.730;8.614;2022-09-17T05:32:35;12.00;64.30
27114;DHT22;14648;49.730;8.614;2022-09-17T05:35:02;12.00;64.30
27114;DHT22;14648;49.730;8.614;2022-09-17T05:37:29;12.10;64.50
27114;DHT22;14648;49.730;8.614;2022-09-17T05:39:54;12.10;64.70
27114;DHT22;14648;49.730;8.614;2022-09-17T05:42:20;12.10;64.70
27114;DHT22;14648;49.730;8.614;2022-09-17T05:44:46;12.10;64.80
27114;DHT22;14648;49.730;8.614;2022-09-17T05:47:11;12.20;64.80
27114;DHT22;14648;49.730;8.614;2022-09-17T05:49:37;12.20;64.80
27114;DHT22;14648;49.730;8.614;2022-09-17T05:52:03;12.20;64.90
27114;DHT22;14648;49.730;8.614;2022-09-17T05:54:29;12.20;65.00
27114;DHT22;14648;49.730;8.614;2022-09-17T05:56:54;12.20;65.20
27114;DHT22;14648;49.730;8.614;2022-09-17T05:59:20;12.20;65.20
27114;DHT22;14648;49.730;8.614;2022-09-17T06:01:46;12.20;65.40
27114;DHT22;14648;49.730;8.614;2022-09-17T06:04:13;12.30;65.60
27114;DHT22;14648;49.730;8.614;2022-09-17T06:06:39;12.20;65.50
27114;DHT22;14648;49.730;8.614;2022-09-17T06:09:07;12.20;66.40
27114;DHT22;14648;49.730;8.614;2022-09-17T06:11:33;12.30;65.80
27114;DHT22;14648;49.730;8.614;2022-09-17T06:13:59;12.40;65.80
27114;DHT22;14648;49.730;8.614;2022-09-17T06:16:25;12.40;65.70
27114;DHT22;14648;49.730;8.614;2022-09-17T06:18:51;12.40;66.00
27114;DHT22;14648;49.730;8.614;2022-09-17T06:21:20;12.40;66.00
27114;DHT22;14648;49.730;8.614;2022-09-17T06:23:50;12.30;66.30
27114;DHT22;14648;49.730;8.614;2022-09-17T06:26:16;12.30;66.40
27114;DHT22;14648;49.730;8.614;2022-09-17T06:28:42;12.40;66.50
27114;DHT22;14648;49.730;8.614;2022-09-17T06:31:10;12.40;66.40
27114;DHT22;14648;49.730;8.614;2022-09-17T06:33:37;12.40;66.60
27114;DHT22;14648;49.730;8.614;2022-09-17T06:36:05;12.40;66.60
27114;DHT22;14648;49.730;8.614;2022-09-17T06:38:33;12.40;66.70
27114;DHT22;14648;49.730;8.614;2022-09-17T06:41:00;12.40;66.80
27114;DHT22;14648;49.730;8.614;2022-09-17T06:43:26;12.40;66.90
27114;DHT22;14648;49.730;8.614;2022-09-17T06:46:00;12.40;66.80
27114;DHT22;14648;49.730;8.614;2022-09-17T06:48:28;12.40;67.00
27114;DHT22;14648;49.730;8.614;2022-09-17T06:51:00;12.40;66.80
27114;DHT22;14648;49.730;8.614;2022-09-17T06:53:26;12.40;66.80
27114;DHT22;14648;49.730;8.614;2022-09-17T06:55:56;12.30;66.80
27114;DHT22;14648;49.730;8.614;2022-09-17T06:58:23;12.30;67.10
27114;DHT22;14648;49.730;8.614;2022-09-17T07:00:50;12.30;67.10
27114;DHT22;14648;49.730;8.614;2022-09-17T07:03:15;12.20;67.20
27114;DHT22;14648;49.730;8.614;2022-09-17T07:05:43;12.30;67.20
27114;DHT22;14648;49.730;8.614;2022-09-17T07:08:09;12.30;67.10
27114;DHT22;14648;49.730;8.614;2022-09-17T07:10:35;12.30;67.10
27114;DHT22;14648;49.730;8.614;2022-09-17T07:13:02;12.30;66.90
27114;DHT22;14648;49.730;8.614;2022-09-17T07:15:54;12.40;67.10
27114;DHT22;14648;49.730;8.614;2022-09-17T07:18:24;12.40;67.40
27114;DHT22;14648;49.730;8.614;2022-09-17T07:20:54;12.40;67.00
27114;DHT22;14648;49.730;8.614;2022-09-17T07:23:23;12.50;67.00
27114;DHT22;14648;49.730;8.614;2022-09-17T07:25:58;12.50;67.00
27114;DHT22;14648;49.730;8.614;2022-09-17T07:28:25;12.50;67.00
27114;DHT22;14648;49.730;8.614;2022-09-17T07:30:52;12.50;67.00
27114;DHT22;14648;49.730;8.614;2022-09-17T07:33:21;12.60;67.00
27114;DHT22;14648;49.730;8.614;2022-09-17T07:36:01;12.60;67.00
27114;DHT22;14648;49.730;8.614;2022-09-17T07:38:29;12.60;67.10
27114;DHT22;14648;49.730;8.614;2022-09-17T07:41:00;12.70;67.10
27114;DHT22;14648;49.730;8.614;2022-09-17T07:43:29;12.80;67.00
27114;DHT22;14648;49.730;8.614;2022-09-17T07:45:57;12.90;67.00
27114;DHT22;14648;49.730;8.614;2022-09-17T07:48:24;13.00;66.90
27114;DHT22;14648;49.730;8.614;2022-09-17T07:50:51;13.00;66.90
27114;DHT22;14648;49.730;8.614;2022-09-17T07:53:17;13.00;66.90
27114;DHT22;14648;49.730;8.614;2022-09-17T07:55:53;13.10;66.90
27114;DHT22;14648;49.730;8.614;2022-09-17T07:58:22;13.10;66.80
27114;DHT22;14648;49.730;8.614;2022-09-17T08:00:48;13.10;66.90
27114;DHT22;14648;49.730;8.614;2022-09-17T08:03:14;13.10;66.90
27114;DHT22;14648;49.730;8.614;2022-09-17T08:05:40;13.20;66.80
27114;DHT22;14648;49.730;8.614;2022-09-17T08:08:06;13.20;66.80
27114;DHT22;14648;49.730;8.614;2022-09-17T08:10:31;13.30;66.80
27114;DHT22;14648;49.730;8.614;2022-09-17T08:12:58;13.40;66.60
27114;DHT22;14648;49.730;8.614;2022-09-17T08:15:24;13.40;66.50
27114;DHT22;14648;49.730;8.614;2022-09-17T08:17:50;13.50;66.50
27114;DHT22;14648;49.730;8.614;2022-09-17T08:20:16;13.50;66.40
27114;DHT22;14648;49.730;8.614;2022-09-17T08:22:43;13.60;66.50
27114;DHT22;14648;49.730;8.614;2022-09-17T08:25:09;13.70;66.60
27114;DHT22;14648;49.730;8.614;2022-09-17T08:27:36;13.70;66.40
27114;DHT22;14648;49.730;8.614;2022-09-17T08:30:04;13.80;66.40
27114;DHT22;14648;49.730;8.614;2022-09-17T08:32:32;13.90;66.50
27114;DHT22;14648;49.730;8.614;2022-09-17T08:34:58;13.90;66.40
27114;DHT22;14648;49.730;8.614;2022-09-17T08:37:26;14.00;65.90
27114;DHT22;14648;49.730;8.614;2022-09-17T08:39:54;14.00;64.90
27114;DHT22;14648;49.730;8.614;2022-09-17T08:42:38;14.00;64.50
27114;DHT22;14648;49.730;8.614;2022-09-17T08:45:14;14.00;64.20
27114;DHT22;14648;49.730;8.614;2022-09-17T08:47:44;14.10;64.20
27114;DHT22;14648;49.730;8.614;2022-09-17T08:50:26;14.10;64.00
27114;DHT22;14648;49.730;8.614;2022-09-17T08:53:06;14.10;63.80
27114;DHT22;14648;49.730;8.614;2022-09-17T09:01:32;14.90;62.90
27114;DHT22;14648;49.730;8.614;2022-09-17T09:04:52;15.10;62.40
27114;DHT22;14648;49.730;8.614;2022-09-17T09:07:29;15.20;61.70
27114;DHT22;14648;49.730;8.614;2022-09-17T09:10:53;15.20;61.60
27114;DHT22;14648;49.730;8.614;2022-09-17T09:13:11;15.20;61.40
27114;DHT22;14648;49.730;8.614;2022-09-17T09:16:10;15.30;61.20
27114;DHT22;14648;49.730;8.614;2022-09-17T09:18:40;15.50;60.80
27114;DHT22;14648;49.730;8.614;2022-09-17T09:21:27;15.80;60.60
27114;DHT22;14648;49.730;8.614;2022-09-17T09:23:54;16.00;60.00
27114;DHT22;14648;49.730;8.614;2022-09-17T09:26:43;16.30;59.50
27114;DHT22;14648;49.730;8.614;2022-09-17T09:34:33;16.20;57.50
27114;DHT22;14648;49.730;8.614;2022-09-17T09:37:23;16.00;57.50
27114;DHT22;14648;49.730;8.614;2022-09-17T09:39:53;16.00;57.60
27114;DHT22;14648;49.730;8.614;2022-09-17T09:42:33;16.00;57.60
27114;DHT22;14648;49.730;8.614;2022-09-17T09:45:11;16.30;57.20
27114;DHT22;14648;49.730;8.614;2022-09-17T09:48:06;16.50;56.60
27114;DHT22;14648;49.730;8.614;2022-09-17T09:51:16;16.50;56.00
27114;DHT22;14648;49.730;8.614;2022-09-17T09:54:15;16.50;56.00
27114;DHT22;14648;49.730;8.614;2022-09-17T09:56:52;16.50;55.90
27114;DHT22;14648;49.730;8.614;2022-09-17T09:59:20;16.70;55.80
27114;DHT22;14648;49.730;8.614;2022-09-17T10:01:46;17.00;55.60
27114;DHT22;14648;49.730;8.614;2022-09-17T10:04:23;17.10;54.90
27114;DHT22;14648;49.730;8.614;2022-09-17T10:06:52;17.30;53.90
27114;DHT22;14648;49.730;8.614;2022-09-17T10:09:20;17.20;53.80
27114;DHT22;14648;49.730;8.614;2022-09-17T10:12:01;17.10;53.90
27114;DHT22;14648;49.730;8.614;2022-09-17T10:14:35;17.00;53.90
27114;DHT22;14648;49.730;8.614;2022-09-17T10:22:36;16.70;53.30
27114;DHT22;14648;49.730;8.614;2022-09-17T10:25:11;16.60;53.20
27114;DHT22;14648;49.730;8.614;2022-09-17T10:27:47;16.50;53.60
27114;DHT22;14648;49.730;8.614;2022-09-17T10:30:15;16.30;54.20
27114;DHT22;14648;49.730;8.614;2022-09-17T10:32:42;16.00;54.60
27114;DHT22;14648;49.730;8.614;2022-09-17T10:37:45;15.70;55.60
27114;DHT22;14648;49.730;8.614;2022-09-17T10:42:49;15.40;56.60
27114;DHT22;14648;49.730;8.614;2022-09-17T10:45:24;15.30;57.10
27114;DHT22;14648;49.730;8.614;2022-09-17T10:47:51;15.30;57.60
27114;DHT22;14648;49.730;8.614;2022-09-17T10:50:23;15.30;57.80
27114;DHT22;14648;49.730;8.614;2022-09-17T10:52:56;15.30;58.20
27114;DHT22;14648;49.730;8.614;2022-09-17T10:55:32;15.30;58.50
27114;DHT22;14648;49.730;8.614;2022-09-17T11:00:41;15.50;58.60
27114;DHT22;14648;49.730;8.614;2022-09-17T11:03:24;15.50;58.70
27114;DHT22;14648;49.730;8.614;2022-09-17T11:06:03;15.50;58.70
27114;DHT22;14648;49.730;8.614;2022-09-17T11:11:51;15.90;58.30
27114;DHT22;14648;49.730;8.614;2022-09-17T11:20:55;16.30;57.60
27114;DHT22;14648;49.730;8.614;2022-09-17T11:26:22;16.50;57.70
27114;DHT22;14648;49.730;8.614;2022-09-17T11:35:07;17.20;56.70
27114;DHT22;14648;49.730;8.614;2022-09-17T11:37:41;17.40;56.50
27114;DHT22;14648;49.730;8.614;2022-09-17T11:43:24;17.70;55.80
27114;DHT22;14648;49.730;8.614;2022-09-17T11:45:59;17.80;54.70
27114;DHT22;14648;49.730;8.614;2022-09-17T11:49:00;17.80;54.50
27114;DHT22;14648;49.730;8.614;2022-09-17T11:51:30;17.80;54.30
27114;DHT22;14648;49.730;8.614;2022-09-17T11:54:30;17.90;53.80
27114;DHT22;14648;49.730;8.614;2022-09-17T11:57:18;17.90;52.90
27114;DHT22;14648;49.730;8.614;2022-09-17T12:00:17;18.00;52.40
27114;DHT22;14648;49.730;8.614;2022-09-17T12:05:35;18.20;51.70
27114;DHT22;14648;49.730;8.614;2022-09-17T12:08:49;18.20;50.50
27114;DHT22;14648;49.730;8.614;2022-09-17T12:11:19;18.10;48.30
27114;DHT22;14648;49.730;8.614;2022-09-17T12:13:53;18.00;48.80
27114;DHT22;14648;49.730;8.614;2022-09-17T12:16:34;17.90;48.70
27114;DHT22;14648;49.730;8.614;2022-09-17T12:19:13;17.90;47.90
27114;DHT22;14648;49.730;8.614;2022-09-17T12:22:05;17.90;47.80
27114;DHT22;14648;49.730;8.614;2022-09-17T12:24:32;17.80;47.60
27114;DHT22;14648;49.730;8.614;2022-09-17T12:27:29;17.80;47.80
27114;DHT22;14648;49.730;8.614;2022-09-17T12:30:19;17.70;47.60
27114;DHT22;14648;49.730;8.614;2022-09-17T12:41:28;17.60;47.20
27114;DHT22;14648;49.730;8.614;2022-09-17T12:50:16;18.30;47.50
27114;DHT22;14648;49.730;8.614;2022-09-17T12:53:08;18.60;47.00
27114;DHT22;14648;49.730;8.614;2022-09-17T12:55:55;18.70;47.50
27114;DHT22;14648;49.730;8.614;2022-09-17T12:59:04;18.80;46.70
27114;DHT22;14648;49.730;8.614;2022-09-17T13:01:44;18.80;46.60
27114;DHT22;14648;49.730;8.614;2022-09-17T13:13:48;19.20;47.20
27114;DHT22;14648;49.730;8.614;2022-09-17T13:16:22;19.40;47.30
27114;DHT22;14648;49.730;8.614;2022-09-17T13:19:01;19.70;46.40
27114;DHT22;14648;49.730;8.614;2022-09-17T13:21:54;19.60;45.30
27114;DHT22;14648;49.730;8.614;2022-09-17T13:24:45;19.60;45.60
27114;DHT22;14648;49.730;8.614;2022-09-17T13:27:22;19.50;45.40
27114;DHT22;14648;49.730;8.614;2022-09-17T13:40:29;19.20;44.00
27114;DHT22;14648;49.730;8.614;2022-09-17T13:43:12;19.40;43.40
27114;DHT22;14648;49.730;8.614;2022-09-17T13:48:28;19.90;42.10
27114;DHT22;14648;49.730;8.614;2022-09-17T13:50:56;19.90;41.70
27114;DHT22;14648;49.730;8.614;2022-09-17T13:53:24;19.80;42.20
27114;DHT22;14648;49.730;8.614;2022-09-17T13:55:58;19.70;41.40
27114;DHT22;14648;49.730;8.614;2022-09-17T13:58:34;19.80;41.40
27114;DHT22;14648;49.730;8.614;2022-09-17T14:01:04;20.00;40.70
27114;DHT22;14648;49.730;8.614;2022-09-17T14:13:52;20.80;40.60
27114;DHT22;14648;49.730;8.614;2022-09-17T14:19:41;20.50;40.00
27114;DHT22;14648;49.730;8.614;2022-09-17T14:22:24;20.30;40.50
27114;DHT22;14648;49.730;8.614;2022-09-17T14:24:52;20.00;39.70
27114;DHT22;14648;49.730;8.614;2022-09-17T14:27:44;19.70;40.00
27114;DHT22;14648;49.730;8.614;2022-09-17T14:30:18;19.50;40.20
27114;DHT22;14648;49.730;8.614;2022-09-17T14:33:03;19.20;40.30
27114;DHT22;14648;49.730;8.614;2022-09-17T14:35:47;19.00;40.70
27114;DHT22;14648;49.730;8.614;2022-09-17T14:38:33;18.90;41.00
27114;DHT22;14648;49.730;8.614;2022-09-17T14:49:20;18.10;41.70
27114;DHT22;14648;49.730;8.614;2022-09-17T14:51:47;17.80;42.40
27114;DHT22;14648;49.730;8.614;2022-09-17T14:54:25;17.60;42.50
27114;DHT22;14648;49.730;8.614;2022-09-17T15:05:25;17.60;44.60
27114;DHT22;14648;49.730;8.614;2022-09-17T15:08:10;17.70;45.10
27114;DHT22;14648;49.730;8.614;2022-09-17T15:10:52;17.80;45.10
27114;DHT22;14648;49.730;8.614;2022-09-17T15:13:48;17.70;45.30
27114;DHT22;14648;49.730;8.614;2022-09-17T15:16:19;17.70;45.10
27114;DHT22;14648;49.730;8.614;2022-09-17T15:18:53;17.70;45.30
27114;DHT22;14648;49.730;8.614;2022-09-17T15:21:38;17.70;44.90
27114;DHT22;14648;49.730;8.614;2022-09-17T15:24:36;17.60;44.70
27114;DHT22;14648;49.730;8.614;2022-09-17T15:27:31;17.50;45.00
27114;DHT22;14648;49.730;8.614;2022-09-17T15:32:59;17.40;44.80
27114;DHT22;14648;49.730;8.614;2022-09-17T15:35:30;17.30;45.10
27114;DHT22;14648;49.730;8.614;2022-09-17T15:38:20;17.30;45.20
27114;DHT22;14648;49.730;8.614;2022-09-17T15:40:49;17.20;45.20
27114;DHT22;14648;49.730;8.614;2022-09-17T15:43:32;17.10;45.60
27114;DHT22;14648;49.730;8.614;2022-09-17T15:46:21;16.80;46.60
27114;DHT22;14648;49.730;8.614;2022-09-17T15:48:52;16.50;48.40
27114;DHT22;14648;49.730;8.614;2022-09-17T15:53:53;16.00;50.10
27114;DHT22;14648;49.730;8.614;2022-09-17T15:56:34;15.80;51.10
27114;DHT22;14648;49.730;8.614;2022-09-17T15:59:02;15.60;52.00
27114;DHT22;14648;49.730;8.614;2022-09-17T16:04:19;15.40;52.90
27114;DHT22;14648;49.730;8.614;2022-09-17T16:09:41;15.30;53.90
27114;DHT22;14648;49.730;8.614;2022-09-17T16:12:24;15.20;54.30
27114;DHT22;14648;49.730;8.614;2022-09-17T16:14:53;15.00;54.70
27114;DHT22;14648;49.730;8.614;2022-09-17T16:17:26;15.00;55.10
27114;DHT22;14648;49.730;8.614;2022-09-17T16:19:57;14.90;55.60
27114;DHT22;14648;49.730;8.614;2022-09-17T16:22:25;14.90;55.40
27114;DHT22;14648;49.730;8.614;2022-09-17T16:24:53;14.80;55.50
27114;DHT22;14648;49.730;8.614;2022-09-17T16:27:28;14.60;55.80
27114;DHT22;14648;49.730;8.614;2022-09-17T16:30:01;14.60;56.50
27114;DHT22;14648;49.730;8.614;2022-09-17T16:32:29;14.50;56.50
27114;DHT22;14648;49.730;8.614;2022-09-17T16:34:55;14.50;59.80
27114;DHT22;14648;49.730;8.614;2022-09-17T16:37:21;14.40;58.30
27114;DHT22;14648;49.730;8.614;2022-09-17T16:39:47;14.30;59.00
27114;DHT22;14648;49.730;8.614;2022-09-17T16:42:14;14.20;58.40
27114;DHT22;14648;49.730;8.614;2022-09-17T16:44:40;14.10;58.60
27114;DHT22;14648;49.730;8.614;2022-09-17T16:47:05;14.10;58.70
27114;DHT22;14648;49.730;8.614;2022-09-17T16:49:31;14.10;58.80
27114;DHT22;14648;49.730;8.614;2022-09-17T16:51:57;14.00;58.70
27114;DHT22;14648;49.730;8.614;2022-09-17T16:54:22;14.00;59.00
27114;DHT22;14648;49.730;8.614;2022-09-17T16:56:48;14.00;59.10
27114;DHT22;14648;49.730;8.614;2022-09-17T16:59:14;14.10;59.20
27114;DHT22;14648;49.730;8.614;2022-09-17T17:01:39;14.10;59.10
27114;DHT22;14648;49.730;8.614;2022-09-17T17:04:05;14.00;59.00
27114;DHT22;14648;49.730;8.614;2022-09-17T17:06:31;13.90;59.00
27114;DHT22;14648;49.730;8.614;2022-09-17T17:08:57;13.90;59.10
27114;DHT22;14648;49.730;8.614;2022-09-17T17:11:26;13.90;59.20
27114;DHT22;14648;49.730;8.614;2022-09-17T17:13:53;13.90;59.30
27114;DHT22;14648;49.730;8.614;2022-09-17T17:16:22;14.00;59.20
27114;DHT22;14648;49.730;8.614;2022-09-17T17:18:50;13.90;58.80
27114;DHT22;14648;49.730;8.614;2022-09-17T17:21:19;13.80;58.90
27114;DHT22;14648;49.730;8.614;2022-09-17T17:23:46;13.80;59.20
27114;DHT22;14648;49.730;8.614;2022-09-17T17:26:14;13.80;59.30
27114;DHT22;14648;49.730;8.614;2022-09-17T17:28:42;13.70;59.50
27114;DHT22;14648;49.730;8.614;2022-09-17T17:31:12;13.70;59.30
27114;DHT22;14648;49.730;8.614;2022-09-17T17:33:37;13.60;59.50
27114;DHT22;14648;49.730;8.614;2022-09-17T17:36:04;13.50;59.30
27114;DHT22;14648;49.730;8.614;2022-09-17T17:38:32;13.40;59.40
27114;DHT22;14648;49.730;8.614;2022-09-17T17:41:11;13.40;59.60
27114;DHT22;14648;49.730;8.614;2022-09-17T17:43:38;13.40;60.10
27114;DHT22;14648;49.730;8.614;2022-09-17T17:46:07;13.30;59.80
27114;DHT22;14648;49.730;8.614;2022-09-17T17:48:34;13.30;59.80
27114;DHT22;14648;49.730;8.614;2022-09-17T17:51:05;13.30;59.90
27114;DHT22;14648;49.730;8.614;2022-09-17T17:53:32;13.30;60.30
27114;DHT22;14648;49.730;8.614;2022-09-17T17:56:05;13.30;60.30
27114;DHT22;14648;49.730;8.614;2022-09-17T17:58:31;13.30;60.50
27114;DHT22;14648;49.730;8.614;2022-09-17T18:00:57;13.30;60.40
27114;DHT22;14648;49.730;8.614;2022-09-17T18:03:25;13.30;60.40
27114;DHT22;14648;49.730;8.614;2022-09-17T18:05:54;13.30;60.70
27114;DHT22;14648;49.730;8.614;2022-09-17T18:08:25;13.30;60.90
27114;DHT22;14648;49.730;8.614;2022-09-17T18:10:53;13.30;60.80
27114;DHT22;14648;49.730;8.614;2022-09-17T18:13:20;13.30;60.90
27114;DHT22;14648;49.730;8.614;2022-09-17T18:15:55;13.40;60.90
27114;DHT22;14648;49.730;8.614;2022-09-17T18:18:25;13.30;61.30
27114;DHT22;14648;49.730;8.614;2022-09-17T18:20:59;13.30;61.40
27114;DHT22;14648;49.730;8.614;2022-09-17T18:23:29;13.30;61.60
27114;DHT22;14648;49.730;8.614;2022-09-17T18:25:59;13.30;62.70
27114;DHT22;14648;49.730;8.614;2022-09-17T18:28:26;13.30;61.80
27114;DHT22;14648;49.730;8.614;2022-09-17T18:30:54;13.30;61.70
27114;DHT22;14648;49.730;8.614;2022-09-17T18:33:24;13.40;61.80
27114;DHT22;14648;49.730;8.614;2022-09-17T18:35:52;13.40;62.00
27114;DHT22;14648;49.730;8.614;2022-09-17T18:38:22;13.40;61.90
27114;DHT22;14648;49.730;8.614;2022-09-17T18:40:48;13.40;62.00